This is the latest recevied weather packets stored in our database for station/object AC2JK-WX. If no packets are shown the sender has not sent any weather packets the latest 10 day(s).
| Time | Temp. | Humidity | Pressure | Rain* | Wind** | Luminosity | Snow |
|---|---|---|---|---|---|---|---|
| 1777864329 | 11.67° C | 54% | 1010 hPa | 0 mm | - | - | - |
| 1777864029 | 12.22° C | 53% | 1010 hPa | 0 mm | - | - | - |
| 1777863730 | 12.22° C | 51% | 1010 hPa | 0 mm | - | - | - |
| 1777863429 | 12.78° C | 50% | 1010 hPa | 0 mm | - | - | - |
| 1777863135 | 12.78° C | 48% | 1010 hPa | 0 mm | - | - | - |
| 1777862829 | 12.78° C | 48% | 1010 hPa | 0 mm | - | - | - |
| 1777862530 | 12.78° C | 48% | 1010 hPa | 0 mm | - | - | - |
| 1777862230 | 12.78° C | 48% | 1010 hPa | 0 mm | - | - | - |
| 1777861929 | 12.78° C | 48% | 1010 hPa | 0 mm | - | - | - |
| 1777861630 | 12.78° C | 49% | 1010 hPa | 0 mm | - | - | - |
| 1777861329 | 12.78° C | 49% | 1010 hPa | 0 mm | - | - | - |
| 1777861029 | 12.22° C | 50% | 1010 hPa | 0 mm | - | - | - |
| 1777860729 | 12.22° C | 51% | 1010 hPa | 0 mm | - | - | - |
| 1777860430 | 12.22° C | 52% | 1010 hPa | 0 mm | - | - | - |
| 1777860129 | 11.67° C | 53% | 1010 hPa | 0 mm | - | - | - |
| 1777859830 | 11.67° C | 55% | 1010 hPa | 0 mm | - | - | - |
| 1777859529 | 11.67° C | 54% | 1010 hPa | 0 mm | - | - | - |
| 1777859230 | 11.67° C | 55% | 1010 hPa | 0 mm | - | - | - |
| 1777858929 | 11.11° C | 57% | 1010 hPa | 0 mm | - | - | - |
| 1777858630 | 11.67° C | 57% | 1010 hPa | 0 mm | - | - | - |
| 1777858329 | 11.67° C | 55% | 1010 hPa | 0 mm | - | - | - |
| 1777858029 | 11.67° C | 56% | 1010 hPa | 0 mm | - | - | - |
| 1777857730 | 12.22° C | 52% | 1010 hPa | 0 mm | - | - | - |
| 1777857429 | 12.22° C | 51% | 1010 hPa | 0 mm | - | - | - |
| 1777857129 | 12.22° C | 51% | 1010 hPa | 0 mm | - | - | - |
* Rain latest hour (hover to see other rain measurements)
** Current wind speed in m/s (hover to see current wind gust speed)